createdAt,value
2023-03-02T00:01:43.631Z,101992.00
2023-03-02T00:04:21.443Z,101996.22
2023-03-02T00:06:49.074Z,102000.44
2023-03-02T00:09:15.679Z,101996.81
2023-03-02T00:11:42.318Z,101995.03
2023-03-02T00:14:08.742Z,101992.63
2023-03-02T00:16:35.415Z,101998.63
2023-03-02T00:19:01.901Z,102001.03
2023-03-02T00:21:28.306Z,101994.13
2023-03-02T00:23:54.763Z,102001.78
2023-03-02T00:26:21.191Z,102003.72
2023-03-02T00:28:47.720Z,102002.81
2023-03-02T00:31:14.550Z,102001.03
2023-03-02T00:33:41.034Z,102006.88
2023-03-02T00:36:15.054Z,101999.09
2023-03-02T00:38:41.505Z,101998.34
2023-03-02T00:41:07.920Z,101989.44
2023-03-02T00:43:34.332Z,101989.44
2023-03-02T00:46:09.041Z,101992.00
2023-03-02T00:48:35.712Z,101989.44
2023-03-02T00:51:02.134Z,101989.16
2023-03-02T00:53:28.547Z,101988.41
2023-03-02T00:55:55.297Z,101992.00
2023-03-02T00:58:21.890Z,101990.19
2023-03-02T01:00:48.755Z,101990.97
2023-03-02T01:03:15.359Z,101984.19
2023-03-02T01:05:41.824Z,101986.91
2023-03-02T01:08:08.250Z,101982.53
2023-03-02T01:10:34.799Z,101982.53
2023-03-02T01:13:01.464Z,101979.41
2023-03-02T01:15:27.886Z,101970.88
2023-03-02T01:17:54.297Z,101968.31
2023-03-02T01:20:20.785Z,101975.22
2023-03-02T01:22:47.290Z,101967.56
2023-03-02T01:25:13.734Z,101977.03
2023-03-02T01:27:40.156Z,101963.50
2023-03-02T01:30:07.160Z,101964.69
2023-03-02T01:32:33.679Z,101970.88
2023-03-02T01:35:00.118Z,101970.69
2023-03-02T01:37:26.522Z,101969.78
2023-03-02T01:39:52.948Z,101959.44
2023-03-02T01:42:19.353Z,101963.50
2023-03-02T01:44:48.425Z,101961.56
2023-03-02T01:47:14.737Z,101953.13
2023-03-02T01:49:57.328Z,101955.84
2023-03-02T01:52:24.285Z,101960.19
2023-03-02T01:54:51.760Z,101952.25
2023-03-02T01:57:22.699Z,101948.78
2023-03-02T01:59:51.003Z,101945.50
2023-03-02T02:02:17.499Z,101932.59
2023-03-02T02:04:45.580Z,101932.59
2023-03-02T02:07:12.015Z,101931.69
2023-03-02T02:09:44.766Z,101929.88
2023-03-02T02:12:16.227Z,101928.84
2023-03-02T02:14:43.346Z,101930.16
2023-03-02T02:17:10.279Z,101928.97
2023-03-02T02:20:00.476Z,101934.84
2023-03-02T02:22:39.442Z,101933.50
2023-03-02T02:25:12.085Z,101923.72
2023-03-02T02:27:38.513Z,101931.06
2023-03-02T02:30:06.709Z,101929.28
2023-03-02T02:32:36.497Z,101929.28
2023-03-02T02:35:07.333Z,101923.13
2023-03-02T02:37:43.256Z,101926.44
2023-03-02T02:40:17.916Z,101924.63
2023-03-02T02:42:46.491Z,101928.97
2023-03-02T02:45:22.266Z,101923.88
2023-03-02T02:47:49.442Z,101923.88
2023-03-02T02:50:23.249Z,101924.63
2023-03-02T02:52:57.809Z,101923.13
2023-03-02T02:55:24.779Z,101918.03
2023-03-02T02:57:53.968Z,101917.28
2023-03-02T03:00:21.635Z,101915.47
2023-03-02T03:02:53.780Z,101925.69
2023-03-02T03:05:20.186Z,101918.19
2023-03-02T03:07:46.694Z,101922.38
2023-03-02T03:10:29.240Z,101925.97
2023-03-02T03:12:55.739Z,101924.78
2023-03-02T03:15:22.840Z,101922.38
2023-03-02T03:17:58.738Z,101921.63
2023-03-02T03:20:26.492Z,101922.22
2023-03-02T03:22:53.513Z,101917.28
2023-03-02T03:25:25.879Z,101924.03
2023-03-02T03:27:52.305Z,101917.88
2023-03-02T03:30:18.727Z,101927.94
2023-03-02T03:32:45.161Z,101916.69
2023-03-02T03:35:12.165Z,101922.50
2023-03-02T03:37:42.083Z,101931.81
2023-03-02T03:40:09.790Z,101932.56
2023-03-02T03:42:37.883Z,101938.25
2023-03-02T03:45:05.850Z,101937.38
2023-03-02T03:47:32.307Z,101933.16
2023-03-02T03:49:58.718Z,101937.50
2023-03-02T03:52:33.958Z,101936.63
2023-03-02T03:55:01.240Z,101933.16
2023-03-02T03:57:28.679Z,101938.25
2023-03-02T03:59:55.288Z,101937.38
2023-03-02T04:02:22.199Z,101929.72
2023-03-02T04:04:48.664Z,101930.31
2023-03-02T04:07:15.115Z,101929.56
2023-03-02T04:09:41.726Z,101921.63
2023-03-02T04:12:08.946Z,101925.22
2023-03-02T04:14:35.853Z,101918.31
2023-03-02T04:17:05.349Z,101917.28
2023-03-02T04:19:32.396Z,101915.63
2023-03-02T04:21:59.476Z,101916.38
2023-03-02T04:24:25.989Z,101919.66
2023-03-02T04:26:52.559Z,101916.97
2023-03-02T04:29:19.099Z,101916.97
2023-03-02T04:31:45.865Z,101911.28
2023-03-02T04:34:12.274Z,101904.66
2023-03-02T04:36:40.125Z,101905.56
2023-03-02T04:39:07.252Z,101915.78
2023-03-02T04:41:33.861Z,101909.03
2023-03-02T04:44:00.258Z,101910.66
2023-03-02T04:46:27.695Z,101909.91
2023-03-02T04:48:54.948Z,101907.97
2023-03-02T04:51:27.151Z,101906.78
2023-03-02T04:53:56.079Z,101911.28
2023-03-02T04:56:22.808Z,101910.38
2023-03-02T04:58:49.492Z,101906.31
2023-03-02T05:01:17.044Z,101901.97
2023-03-02T05:03:43.632Z,101904.06
2023-03-02T05:06:10.439Z,101904.66
2023-03-02T05:08:37.123Z,101901.97
2023-03-02T05:11:03.659Z,101893.56
2023-03-02T05:13:30.260Z,101898.34
2023-03-02T05:15:58.278Z,101905.84
2023-03-02T05:18:25.306Z,101907.66
2023-03-02T05:20:52.822Z,101904.06
2023-03-02T05:23:27.508Z,101915.44
2023-03-02T05:25:55.824Z,101907.31
2023-03-02T05:28:24.547Z,101911.38
2023-03-02T05:30:51.513Z,101909.59
2023-03-02T05:33:18.690Z,101913.91
2023-03-02T05:35:45.816Z,101914.50
2023-03-02T05:38:12.279Z,101917.78
2023-03-02T05:40:39.725Z,101915.09
2023-03-02T05:43:06.533Z,101914.19
2023-03-02T05:45:36.209Z,101918.38
2023-03-02T05:48:03.142Z,101914.19
2023-03-02T05:50:29.632Z,101917.50
2023-03-02T05:52:56.087Z,101912.41
2023-03-02T05:55:22.550Z,101924.09
2023-03-02T05:57:49.428Z,101920.16
2023-03-02T06:00:17.391Z,101920.44
2023-03-02T06:02:43.969Z,101921.34
2023-03-02T06:05:16.760Z,101920.75
2023-03-02T06:07:43.375Z,101914.59
2023-03-02T06:10:11.624Z,101924.19
2023-03-02T06:12:38.610Z,101920.31
2023-03-02T06:15:06.662Z,101924.66
2023-03-02T06:17:33.216Z,101923.28
2023-03-02T06:19:59.657Z,101932.44
2023-03-02T06:22:26.130Z,101933.94
2023-03-02T06:24:55.103Z,101928.53
2023-03-02T06:27:21.833Z,101931.78
2023-03-02T06:29:48.256Z,101929.44
2023-03-02T06:32:14.790Z,101936.59
2023-03-02T06:34:41.275Z,101932.25
2023-03-02T06:37:07.684Z,101936.75
2023-03-02T06:39:34.203Z,101948.28
2023-03-02T06:42:00.676Z,101941.53
2023-03-02T06:44:27.099Z,101950.22
2023-03-02T06:46:53.528Z,101945.47
2023-03-02T06:49:19.944Z,101948.63
2023-03-02T06:51:46.428Z,101945.47
2023-03-02T06:54:12.950Z,101949.06
2023-03-02T06:56:41.006Z,101949.72
2023-03-02T06:59:07.676Z,101937.56
2023-03-02T07:01:36.182Z,101942.06
2023-03-02T07:04:03.310Z,101937.28
2023-03-02T07:06:29.807Z,101944.47
2023-03-02T07:08:57.237Z,101943.31
2023-03-02T07:11:23.847Z,101945.84
2023-03-02T07:13:50.999Z,101944.53
2023-03-02T07:16:17.418Z,101941.53
2023-03-02T07:18:43.897Z,101946.50
2023-03-02T07:21:10.318Z,101941.88
2023-03-02T07:23:36.749Z,101936.03
2023-03-02T07:26:08.240Z,101939.75
2023-03-02T07:28:43.324Z,101934.66
2023-03-02T07:31:10.849Z,101934.53
2023-03-02T07:33:38.818Z,101937.69
2023-03-02T07:36:07.009Z,101933.91
2023-03-02T07:38:33.791Z,101935.28
2023-03-02T07:41:00.196Z,101931.25
2023-03-02T07:43:28.710Z,101936.34
2023-03-02T07:45:55.118Z,101933.31
2023-03-02T07:48:23.284Z,101933.63
2023-03-02T07:50:49.720Z,101931.84
2023-03-02T07:53:16.130Z,101926.72
2023-03-02T07:55:42.603Z,101932.13
2023-03-02T07:58:09.015Z,101929.28
2023-03-02T08:00:36.694Z,101939.78
2023-03-02T08:03:03.193Z,101939.63
2023-03-02T08:05:30.461Z,101940.84
2023-03-02T08:07:56.893Z,101944.88
2023-03-02T08:10:23.298Z,101946.84
2023-03-02T08:12:49.743Z,101945.31
2023-03-02T08:15:16.215Z,101949.69
2023-03-02T08:17:42.629Z,101945.75
2023-03-02T08:20:09.583Z,101939.28
2023-03-02T08:22:36.423Z,101941.25
2023-03-02T08:25:03.009Z,101934.31
2023-03-02T08:27:29.497Z,101936.44
2023-03-02T08:29:56.722Z,101933.44
2023-03-02T08:32:23.195Z,101943.63
2023-03-02T08:34:51.743Z,101952.34
2023-03-02T08:37:21.230Z,101943.91
2023-03-02T08:39:48.409Z,101951.38
2023-03-02T08:42:14.822Z,101950.81
2023-03-02T08:44:41.262Z,101953.50
2023-03-02T08:47:07.674Z,101946.28
2023-03-02T08:49:34.094Z,101953.16
2023-03-02T08:52:00.723Z,101937.34
2023-03-02T08:54:27.238Z,101937.78
2023-03-02T08:56:53.666Z,101939.28
2023-03-02T08:59:21.626Z,101935.97
2023-03-02T09:01:48.161Z,101939.56
2023-03-02T09:04:14.825Z,101938.50
2023-03-02T09:06:43.645Z,101934.84
2023-03-02T09:09:11.391Z,101930.75
2023-03-02T09:11:38.256Z,101926.81
2023-03-02T09:14:05.185Z,101922.72
2023-03-02T09:16:31.934Z,101923.75
2023-03-02T09:18:58.388Z,101921.78
2023-03-02T09:21:24.910Z,101919.91
2023-03-02T09:23:57.879Z,101929.53
2023-03-02T09:26:25.761Z,101930.84
2023-03-02T09:28:52.963Z,101927.53
2023-03-02T09:31:19.451Z,101929.19
2023-03-02T09:33:45.916Z,101934.72
2023-03-02T09:36:20.915Z,101937.84
2023-03-02T09:38:48.204Z,101929.06
2023-03-02T09:41:20.637Z,101920.75
2023-03-02T09:44:02.186Z,101927.22
2023-03-02T09:46:49.976Z,101931.28
2023-03-02T09:49:47.447Z,101926.31
2023-03-02T09:52:31.004Z,101928.25
2023-03-02T09:55:20.815Z,101919.53
2023-03-02T09:57:47.556Z,101909.44
2023-03-02T10:00:19.627Z,101915.72
2023-03-02T10:02:49.599Z,101908.63
2023-03-02T10:05:45.588Z,101906.44
2023-03-02T10:08:17.333Z,101912.09
2023-03-02T10:10:58.001Z,101907.94
2023-03-02T10:13:42.313Z,101907.50
2023-03-02T10:16:24.031Z,101918.25
2023-03-02T10:19:14.788Z,101906.63
2023-03-02T10:21:43.544Z,101901.75
2023-03-02T10:24:36.315Z,101897.97
2023-03-02T10:27:20.447Z,101900.91
2023-03-02T10:29:51.352Z,101901.81
2023-03-02T10:32:33.400Z,101905.00
2023-03-02T10:35:02.665Z,101913.97
2023-03-02T10:37:30.587Z,101905.81
2023-03-02T10:39:57.217Z,101907.13
2023-03-02T10:42:37.845Z,101909.03
2023-03-02T10:45:27.497Z,101914.59
2023-03-02T10:48:05.443Z,101914.94
2023-03-02T10:50:32.321Z,101915.06
2023-03-02T10:53:00.753Z,101915.06
2023-03-02T10:55:28.649Z,101914.94
2023-03-02T10:58:31.105Z,101914.78
2023-03-02T11:01:14.076Z,101903.78
2023-03-02T11:03:40.527Z,101901.22
2023-03-02T11:06:18.257Z,101893.78
2023-03-02T11:08:44.717Z,101898.66
2023-03-02T11:11:22.442Z,101886.41
2023-03-02T11:13:48.960Z,101887.81
2023-03-02T11:16:18.322Z,101890.00
2023-03-02T11:18:49.817Z,101886.97
2023-03-02T11:21:35.601Z,101876.72
2023-03-02T11:24:16.035Z,101872.09
2023-03-02T11:26:56.763Z,101882.59
2023-03-02T11:29:42.916Z,101883.00
2023-03-02T11:32:17.537Z,101872.25
2023-03-02T11:34:50.864Z,101871.59
2023-03-02T11:37:34.608Z,101863.91
2023-03-02T11:40:26.418Z,101864.31
2023-03-02T11:42:53.308Z,101862.13
2023-03-02T11:45:24.149Z,101858.81
2023-03-02T11:48:03.224Z,101853.03
2023-03-02T11:50:32.737Z,101854.34
2023-03-02T11:53:01.526Z,101849.06
2023-03-02T11:55:30.095Z,101850.47
2023-03-02T12:00:41.274Z,101859.31
2023-03-02T12:03:20.739Z,101854.72
2023-03-02T12:06:01.809Z,101853.94
2023-03-02T12:08:40.595Z,101852.16
2023-03-02T12:11:19.095Z,101850.09
2023-03-02T12:14:06.840Z,101850.38
2023-03-02T12:16:41.710Z,101846.75
2023-03-02T12:19:17.233Z,101845.50
2023-03-02T12:21:56.702Z,101842.94
2023-03-02T12:24:32.432Z,101834.56
2023-03-02T12:27:06.290Z,101832.63
2023-03-02T12:29:40.279Z,101827.25
2023-03-02T12:32:23.676Z,101825.81
2023-03-02T12:35:08.312Z,101827.91
2023-03-02T12:37:47.547Z,101823.13
2023-03-02T12:40:33.652Z,101825.03
2023-03-02T12:43:28.495Z,101814.66
2023-03-02T12:46:22.790Z,101811.44
2023-03-02T12:49:08.714Z,101808.09
2023-03-02T12:51:57.099Z,101803.47
2023-03-02T12:54:26.069Z,101802.81
2023-03-02T12:57:15.397Z,101794.59
2023-03-02T12:59:42.422Z,101790.59
2023-03-02T13:02:20.127Z,101789.97
2023-03-02T13:04:57.489Z,101789.81
2023-03-02T13:07:27.707Z,101779.41
2023-03-02T13:09:57.144Z,101776.69
2023-03-02T13:12:26.126Z,101772.91
2023-03-02T13:14:54.937Z,101776.09
2023-03-02T13:17:31.091Z,101779.56
2023-03-02T13:20:02.083Z,101772.09
2023-03-02T13:22:29.287Z,101763.34
2023-03-02T13:25:03.363Z,101757.88
2023-03-02T13:27:30.691Z,101757.72
2023-03-02T13:30:12.716Z,101752.38
2023-03-02T13:32:41.022Z,101752.88
2023-03-02T13:35:26.430Z,101749.75
2023-03-02T13:37:59.520Z,101745.88
2023-03-02T13:40:33.581Z,101747.09
2023-03-02T13:43:00.042Z,101744.97
2023-03-02T13:45:28.579Z,101739.50
2023-03-02T13:47:56.733Z,101739.50
2023-03-02T13:50:25.912Z,101736.25
2023-03-02T13:52:54.814Z,101740.09
2023-03-02T13:55:22.205Z,101732.38
2023-03-02T13:57:50.000Z,101731.13
2023-03-02T14:00:20.093Z,101722.63
2023-03-02T14:02:48.580Z,101729.88
2023-03-02T14:05:21.076Z,101729.66
2023-03-02T14:07:47.767Z,101727.88
2023-03-02T14:10:18.090Z,101727.50
2023-03-02T14:13:12.174Z,101726.72
2023-03-02T14:15:41.655Z,101714.31
2023-03-02T14:18:23.758Z,101709.41
2023-03-02T14:20:50.235Z,101713.19
2023-03-02T14:23:16.725Z,101699.03
2023-03-02T14:25:43.160Z,101709.09
2023-03-02T14:28:12.548Z,101697.47
2023-03-02T14:30:39.988Z,101698.03
2023-03-02T14:33:10.006Z,101697.03
2023-03-02T14:35:36.529Z,101686.75
2023-03-02T14:38:02.975Z,101690.34
2023-03-02T14:40:29.492Z,101682.06
2023-03-02T14:42:55.920Z,101690.88
2023-03-02T14:45:23.026Z,101691.88
2023-03-02T14:47:49.648Z,101687.78
2023-03-02T14:50:18.926Z,101684.84
2023-03-02T14:52:51.759Z,101687.09
2023-03-02T14:55:29.142Z,101683.41
2023-03-02T14:57:58.260Z,101687.75
2023-03-02T15:00:25.377Z,101681.84
2023-03-02T15:02:52.049Z,101689.56
2023-03-02T15:05:19.108Z,101692.53
2023-03-02T15:07:46.237Z,101685.03
2023-03-02T15:10:15.701Z,101678.41
2023-03-02T15:12:42.172Z,101681.75
2023-03-02T15:15:09.498Z,101681.53
2023-03-02T15:17:35.913Z,101677.59
2023-03-02T15:20:02.329Z,101677.00
2023-03-02T15:22:28.762Z,101688.91
2023-03-02T15:24:55.365Z,101676.66
2023-03-02T15:27:23.052Z,101675.94
2023-03-02T15:29:49.501Z,101675.25
2023-03-02T15:32:16.529Z,101674.75
2023-03-02T15:34:43.354Z,101672.22
2023-03-02T15:37:11.294Z,101672.28
2023-03-02T15:39:38.002Z,101670.09
2023-03-02T15:42:05.093Z,101682.69
2023-03-02T15:44:31.523Z,101678.09
2023-03-02T15:46:59.818Z,101680.28
2023-03-02T15:49:28.470Z,101679.78
2023-03-02T15:51:58.391Z,101672.88
2023-03-02T15:54:25.887Z,101681.09
2023-03-02T15:56:53.296Z,101675.72
2023-03-02T15:59:25.374Z,101676.25
2023-03-02T16:01:52.227Z,101670.09
2023-03-02T16:04:18.698Z,101678.03
2023-03-02T16:06:45.211Z,101671.00
2023-03-02T16:09:12.032Z,101673.69
2023-03-02T16:11:38.443Z,101677.53
2023-03-02T16:14:05.105Z,101671.66
2023-03-02T16:16:31.568Z,101677.66
2023-03-02T16:18:58.568Z,101675.59
2023-03-02T16:21:26.822Z,101675.00
2023-03-02T16:23:53.791Z,101685.78
2023-03-02T16:26:21.811Z,101689.13
2023-03-02T16:28:48.721Z,101677.94
2023-03-02T16:31:18.930Z,101681.16
2023-03-02T16:33:46.718Z,101684.63
2023-03-02T16:36:14.552Z,101683.47
2023-03-02T16:38:41.166Z,101687.81
2023-03-02T16:41:13.220Z,101688.19
2023-03-02T16:43:45.334Z,101690.63
2023-03-02T16:46:11.839Z,101692.19
2023-03-02T16:48:38.279Z,101698.97
2023-03-02T16:51:05.372Z,101696.28
2023-03-02T16:53:31.888Z,101703.72
2023-03-02T16:55:58.317Z,101694.00
2023-03-02T16:58:24.941Z,101695.66
2023-03-02T17:00:51.518Z,101700.41
2023-03-02T17:03:18.076Z,101704.09
2023-03-02T17:05:44.571Z,101707.84
2023-03-02T17:08:11.994Z,101705.69
2023-03-02T17:10:39.272Z,101706.94
2023-03-02T17:13:05.778Z,101706.31
2023-03-02T17:15:32.621Z,101707.56
2023-03-02T17:17:59.060Z,101710.13
2023-03-02T17:20:25.907Z,101714.22
2023-03-02T17:22:52.342Z,101725.50
2023-03-02T17:25:19.964Z,101722.19
2023-03-02T17:27:46.444Z,101721.28
2023-03-02T17:30:14.886Z,101733.94
2023-03-02T17:32:41.869Z,101725.88
2023-03-02T17:35:10.002Z,101732.66
2023-03-02T17:37:36.824Z,101730.75
2023-03-02T17:40:03.962Z,101738.81
2023-03-02T17:42:30.455Z,101736.75
2023-03-02T17:44:56.886Z,101750.34
2023-03-02T17:47:23.530Z,101745.97
2023-03-02T17:49:50.043Z,101750.34
2023-03-02T17:52:17.760Z,101740.09
2023-03-02T17:54:44.752Z,101739.34
2023-03-02T17:57:11.792Z,101736.50
2023-03-02T17:59:38.413Z,101738.03
2023-03-02T18:02:04.879Z,101734.69
2023-03-02T18:04:31.363Z,101739.06
2023-03-02T18:06:57.837Z,101739.81
2023-03-02T18:09:24.276Z,101741.63
2023-03-02T18:11:50.754Z,101739.94
2023-03-02T18:14:20.053Z,101748.16
2023-03-02T18:16:46.794Z,101745.47
2023-03-02T18:19:13.748Z,101746.88
2023-03-02T18:21:41.726Z,101748.28
2023-03-02T18:24:08.912Z,101746.47
2023-03-02T18:26:35.343Z,101756.44
2023-03-02T18:29:01.764Z,101754.41
2023-03-02T18:31:28.500Z,101752.59
2023-03-02T18:33:55.004Z,101759.91
2023-03-02T18:36:21.426Z,101766.69
2023-03-02T18:38:47.867Z,101760.25
2023-03-02T18:41:14.334Z,101772.66
2023-03-02T18:43:41.775Z,101775.56
2023-03-02T18:46:17.826Z,101771.06
2023-03-02T18:48:44.313Z,101771.97
2023-03-02T18:51:10.763Z,101781.44
2023-03-02T18:53:38.046Z,101777.06
2023-03-02T18:56:04.591Z,101774.34
2023-03-02T18:58:34.091Z,101780.88
2023-03-02T19:01:00.978Z,101775.22
2023-03-02T19:03:27.825Z,101785.03
2023-03-02T19:05:57.649Z,101782.34
2023-03-02T19:08:25.326Z,101787.31
2023-03-02T19:10:52.909Z,101778.88
2023-03-02T19:13:20.037Z,101779.31
2023-03-02T19:15:47.158Z,101770.59
2023-03-02T19:18:18.521Z,101781.88
2023-03-02T19:20:45.565Z,101775.69
2023-03-02T19:23:12.048Z,101770.88
2023-03-02T19:25:38.803Z,101773.06
2023-03-02T19:28:06.245Z,101776.59
2023-03-02T19:30:34.009Z,101785.94
2023-03-02T19:33:01.803Z,101784.13
2023-03-02T19:35:29.475Z,101785.78
2023-03-02T19:37:56.381Z,101780.56
2023-03-02T19:40:24.828Z,101789.88
2023-03-02T19:42:52.557Z,101792.31
2023-03-02T19:45:24.902Z,101790.78
2023-03-02T19:47:51.437Z,101786.44
2023-03-02T19:50:19.684Z,101789.63
2023-03-02T19:52:46.600Z,101790.50
2023-03-02T19:55:14.848Z,101789.34
2023-03-02T19:57:42.816Z,101796.91
2023-03-02T20:00:13.639Z,101786.38
2023-03-02T20:02:40.794Z,101785.59
2023-03-02T20:05:09.489Z,101784.84
2023-03-02T20:07:36.058Z,101785.00
2023-03-02T20:10:02.644Z,101791.91
2023-03-02T20:12:29.133Z,101788.47
2023-03-02T20:14:56.771Z,101785.59
2023-03-02T20:17:23.885Z,101786.09
2023-03-02T20:19:51.045Z,101784.56
2023-03-02T20:22:17.472Z,101784.09
2023-03-02T20:24:43.942Z,101780.03
2023-03-02T20:27:12.485Z,101777.47
2023-03-02T20:29:41.514Z,101775.66
2023-03-02T20:32:09.955Z,101776.69
2023-03-02T20:34:37.954Z,101773.13
2023-03-02T20:37:06.132Z,101773.72
2023-03-02T20:39:35.461Z,101779.72
2023-03-02T20:42:02.473Z,101787.13
2023-03-02T20:44:30.983Z,101785.84
2023-03-02T20:47:01.518Z,101783.16
2023-03-02T20:49:30.394Z,101787.38
2023-03-02T20:51:58.591Z,101792.94
2023-03-02T20:54:28.430Z,101791.16
2023-03-02T20:56:55.209Z,101788.00
2023-03-02T20:59:22.597Z,101803.94
2023-03-02T21:01:49.173Z,101799.44
2023-03-02T21:04:15.655Z,101800.84
2023-03-02T21:06:42.160Z,101806.59
2023-03-02T21:09:09.188Z,101809.59
2023-03-02T21:11:36.057Z,101802.69
2023-03-02T21:14:03.207Z,101816.38
2023-03-02T21:16:36.020Z,101802.69
2023-03-02T21:19:04.474Z,101807.66
2023-03-02T21:21:41.030Z,101803.19
2023-03-02T21:24:09.823Z,101807.13
2023-03-02T21:26:36.844Z,101800.22
2023-03-02T21:29:05.121Z,101802.63
2023-03-02T21:31:31.634Z,101798.44
2023-03-02T21:33:58.227Z,101799.31
2023-03-02T21:36:26.854Z,101792.28
2023-03-02T21:38:54.257Z,101796.31
2023-03-02T21:41:21.080Z,101789.41
2023-03-02T21:43:47.819Z,101790.63
2023-03-02T21:46:16.746Z,101789.84
2023-03-02T21:48:43.568Z,101781.28
2023-03-02T21:51:11.653Z,101783.84
2023-03-02T21:53:38.118Z,101787.91
2023-03-02T21:56:04.981Z,101793.78
2023-03-02T21:58:31.407Z,101798.59
2023-03-02T22:00:57.862Z,101789.16
2023-03-02T22:03:24.270Z,101802.06
2023-03-02T22:05:51.007Z,101801.66
2023-03-02T22:08:18.717Z,101798.19
2023-03-02T22:10:47.080Z,101798.19
2023-03-02T22:13:15.286Z,101800.91
2023-03-02T22:15:41.957Z,101798.53
2023-03-02T22:18:15.860Z,101794.94
2023-03-02T22:20:44.822Z,101793.00
2023-03-02T22:23:23.453Z,101794.66
2023-03-02T22:25:52.706Z,101787.47
2023-03-02T22:28:21.564Z,101793.22
2023-03-02T22:30:49.366Z,101798.47
2023-03-02T22:33:19.665Z,101808.69
2023-03-02T22:35:47.315Z,101812.91
2023-03-02T22:38:23.413Z,101802.81
2023-03-02T22:40:50.002Z,101799.50
2023-03-02T22:43:29.534Z,101791.34
2023-03-02T22:46:05.926Z,101788.78
2023-03-02T22:48:35.673Z,101784.44
2023-03-02T22:51:22.821Z,101787.94
2023-03-02T22:53:57.537Z,101782.22
2023-03-02T22:56:26.198Z,101779.94
2023-03-02T22:58:52.768Z,101785.69
2023-03-02T23:01:25.261Z,101780.28
2023-03-02T23:03:54.244Z,101775.47
2023-03-02T23:06:31.594Z,101780.13
2023-03-02T23:09:00.628Z,101780.28
2023-03-02T23:11:27.829Z,101773.38
2023-03-02T23:13:54.758Z,101786.91
2023-03-02T23:16:27.086Z,101788.16
2023-03-02T23:18:56.231Z,101776.69
2023-03-02T23:21:45.322Z,101780.00
2023-03-02T23:24:12.329Z,101775.25
2023-03-02T23:26:39.409Z,101768.34
2023-03-02T23:29:06.207Z,101766.19
2023-03-02T23:31:32.905Z,101755.63
2023-03-02T23:33:59.580Z,101747.22
2023-03-02T23:36:27.624Z,101747.50
2023-03-02T23:38:54.087Z,101749.28
2023-03-02T23:41:20.709Z,101747.22
2023-03-02T23:43:47.230Z,101739.69
2023-03-02T23:46:14.263Z,101735.75
2023-03-02T23:48:42.314Z,101739.84
2023-03-02T23:51:09.502Z,101733.56
2023-03-02T23:53:35.925Z,101726.16
2023-03-02T23:56:02.507Z,101725.66
2023-03-02T23:58:28.952Z,101725.81
